Time (yr/mo/day/hr) Wind Speed at 50 metres (Glencore Tower; km/hr) Wind Direction at 50 metres (Glencore Tower; degrees) Temperature (oC) SO2 Dispersion Conditions Mixing Height (m)
2020 03 29 13 14 85 4 Moderately unstable 1049
2020 03 29 14 14 104 6 Neutral 636
2020 03 29 15 14 79 5 Neutral 1238
2020 03 29 16 15 75 5 Neutral 666
2020 03 29 17 15 87 5 Neutral 1047
2020 03 29 18 13 111 4 Neutral 603
2020 03 29 19 14 154 5 Neutral 832
2020 03 29 20 17 186 5 Neutral 961
2020 03 29 21 18 211 5 Neutral 1086
2020 03 29 22 18 217 5 Neutral 1204
2020 03 29 23 18 213 5 Neutral 1317
2020 03 30 00 14 202 5 Neutral 833
2020 03 30 01 10 184 4 Neutral 519
2020 03 30 02 8 155 4 Neutral 315
2020 03 30 03 7 118 3 Neutral 240
2020 03 30 04 7 57 2 Neutral 259
2020 03 30 05 13 20 1 Neutral 781
2020 03 30 06 19 12 0 Neutral 1353
2020 03 30 07 19 16 1 Neutral 1367
2020 03 30 08 20 17 1 Neutral 1424
2020 03 30 09 22 19 2 Neutral 1328
2020 03 30 10 22 20 2 Neutral 1190
2020 03 30 11 22 23 3 Neutral 1181
2020 03 30 12 23 25 4 Neutral 1373
2020 03 30 13 23 25 4 Neutral 1406